Calimesa, CA

4:46 AM PST on February 12, 2016 (GMT -0800)
County Line | | Change Station
CLOSE
Current Station
Personal Weather Station
Location: Yucaipa, CA
Elevation: 2726 ft
Nearby Weather Stations

Elev 2726 ft 34.01 °N, 117.02 °W | Updated 1 second ago

Clear
Clear
54.5 °F
Feels Like 54.5 °F
N
0.0
Wind Variable Wind from North
Gusts 1.0 mph

Today
High -- | Low -- °F
--% Chance of Precip.
Yesterday
High -- | Low -- °F
Precip. -- in
Pressure 30.10 in
Visibility 10.0 miles
Clouds Clear
Dew Point 21 °F
Humidity 27%
Rainfall 0.00 in
Snow Depth Not available.
6:36 AM 5:29 PM
Waxing Crescent, 20% visible
METAR KRIV 121158Z AUTO 00000KT 10SM CLR 04/M01 A3012 RMK AO2 SLP193 T00441012 10108 20038 57009
Pressure 30.10 in
Visibility 10.0 miles
Clouds Clear
Dew Point 21 °F
Humidity 27%
Rainfall 0.00 in
Snow Depth Not available.
6:36 AM 5:29 PM
Waxing Crescent, 20% visible
METAR KRIV 121158Z AUTO 00000KT 10SM CLR 04/M01 A3012 RMK AO2 SLP193 T00441012 10108 20038 57009

10-Day Weather Forecast

Almanac

Astronomy

Feb. 12, 2016 Rise Set
Actual Time
Civil Twilight
Nautical Twilight
Astronomical Twilight
Moon
Length of Visible Light
Length of Day
Tomorrow will be .
, % of the Moon is Illuminated

Today's Extremes

State Highs State Lows

Community

WunderPhotos

Upload Photos

1,892,300 photos uploaded!

WunderBlog® & News

Nearby

Air Quality

  Air Quality AQ Index Pollutant
Not available.

Snow Depth

Station Depth Elevation

Earthquake Activity

City Distance Mag. Time & Date
Minimum magnitude displayed is 2.5.

Coastal Water Temperatures

Place Temperature

Stations

Nearby Weather Stations

Station Location Temp. Windchill Dew Point Humidity Wind Precip. Elev Updated Type
                   

Watches & Warnings

There are currently no watches in effect.